No requiere especial atencion con respecto al clima.   -   No hay Alarmas

Informes de METAR cercanos

 

LEXJ - Santander/Parayas, Spain
Distance from station: ESE 6km
Actualización: 22/01/2019 16:00
Lluvia hoy, Muy nuboso
Lluvia hoy, Muy nuboso
 Viento del O
Viento: O 28 km/h
Temperatura: 8°C
Temp.Sensacion: 4°C
Rocío: 6°C
Humedad: 87%
Barómetro: 1014 hPa
Resumen: Lluvia hoy
Clouds: Muy nuboso
Visibilidad: 5 km
Cloud details: Few Clouds 457 m
Few Clouds 732 m
Muy nuboso 1189 m
2019/01/22 15:00 LEXJ 221500Z 28015KT 240V300 5000 RA FEW015 FEW024TCU BKN039 08/06 Q1014
LEBB - Bilbao/Sondica, Spain
Distance from station: ESE 80km
Actualización: 22/01/2019 16:00
Lluvia débil, Muy nuboso
Lluvia débil, Muy nuboso
 Viento del O
Viento: O 13 km/h
Temperatura: 8°C
Temp.Sensacion: 6°C
Rocío: 6°C
Humedad: 87%
Barómetro: 1013 hPa
Resumen: Lluvia débil
Clouds: Muy nuboso
Visibilidad: 8 km
Cloud details: Few Clouds 671 m
Parcialmente nuboso 1067 m
Muy nuboso 1615 m
2019/01/22 15:00 LEBB 221500Z 28007KT 240V330 8000 -RA FEW022 SCT035 BKN053 08/06 Q1013 TEMPO 3000 RA
 
LEBL - Barcelona Airpor, Spain
Distance from station: ESE 726km
Actualización: 22/01/2019 16:00
Few Clouds
Few Clouds
 Viento del ONO
Viento: ONO 7 km/h
Temperatura: 9°C
Temp.Sensacion: 8°C
Rocío: 0°C
Humedad: 54%
Barómetro: 1009 hPa
Clouds: Few Clouds
Visibilidad: 10 km
Cloud details: Few Clouds 1524 m
2019/01/22 15:00 LEBL 221500Z 30004KT 240V360 9999 FEW050 09/M00 Q1009 NOSIG
LEMD - Madrid/Barajas, Spain
Distance from station: S 325km
Actualización: 22/01/2019 16:00
Muy nuboso
Muy nuboso
 Viento del O
Viento: O 24 km/h
Temperatura: 8°C
Temp.Sensacion: 4°C
Rocío: 2°C
Humedad: 66%
Barómetro: 1013 hPa
Clouds: Muy nuboso
Visibilidad: 10 km
Cloud details: Few Clouds 1524 m
Muy nuboso 2134 m
2019/01/22 15:00 LEMD 221500Z 26013KT 9999 FEW050 BKN070 08/02 Q1013 NOSIG
 
LPPT - Lisbon/Portela, Portugal
Distance from station: SO 663km
Actualización: 22/01/2019 16:00
Muy nuboso
Muy nuboso
 Viento del NO
Viento: NO 17 km/h
Temperatura: 12°C
Rocío: 9°C
Humedad: 82%
Barómetro: 1023 hPa
Clouds: Muy nuboso
Visibilidad: 10 km
Cloud details: Muy nuboso 549 m
2019/01/22 15:00 LPPT 221500Z 31009KT 280V340 9999 BKN018 12/09 Q1023
LECO - La Coruna/Alvedr, Spain
Distance from station: O 349km
Actualización: 22/01/2019 16:00
Lluvia débil, Muy nuboso
Lluvia débil, Muy nuboso
 Viento del NNO
Viento: NNO 13 km/h
Temperatura: 10°C
Temp.Sensacion: 8°C
Rocío: 7°C
Humedad: 82%
Barómetro: 1019 hPa
Resumen: Lluvia débil
Clouds: Muy nuboso
Visibilidad: 10 km
Cloud details: Parcialmente nuboso 579 m
Muy nuboso 914 m
2019/01/22 15:00 LECO 221500Z 33007KT 290V020 9999 -RA SCT019 BKN030 10/07 Q1019 TEMPO 3000 -RA BKN014
 
LEST - Santiago/Labacol, Spain
Distance from station: O 358km
Actualización: 22/01/2019 16:00
Muy nuboso
Muy nuboso
 Viento del NO
Viento: NO 11 km/h
Temperatura: 8°C
Temp.Sensacion: 6°C
Rocío: 6°C
Humedad: 87%
Barómetro: 1019 hPa
Clouds: Muy nuboso
Visibilidad: 10 km
Cloud details: Parcialmente nuboso 427 m
Muy nuboso 762 m
2019/01/22 15:00 LEST 221500Z 32006KT 9999 SCT014 BKN025 08/06 Q1019 TEMPO 3000 -RA BKN005
EBBR - Brussels International Airport, Belgium
Distance from station: O 1339km
Actualización: 22/01/2019 15:50
Muy nuboso
Muy nuboso
 Viento del SSO
Viento: SSO 17 km/h
Temperatura: -1°C
Temp.Sensacion: -6°C
Rocío: -3°C
Humedad: 86%
Barómetro: 1002 hPa
Clouds: Muy nuboso
Visibilidad: 9 km
Cloud details: Muy nuboso 396 m
2019/01/22 14:50 EBBR 221450Z 20009KT 9000 BKN013 M01/M03 Q1002 TEMPO BKN009